Time;durP1;ratioP1;P1;durP2;ratioP2;P2;SDS_P1;SDS_P2;PMS_P1;PMS_P2;Temp;Humidity;BMP_temperature;BMP_pressure;BME280_temperature;BME280_humidity;BME280_pressure;Samples;Min_cycle;Max_cycle;Signal;HPM_P1;HPM_P2
2022/10/07 00:00:20;;;;;;;9.02;8.20;;;23.30;99.90;;;;;;6203448;28;87877;-64
2022/10/07 00:03:25;;;;;;;9.75;8.15;;;23.40;99.90;;;;;;6191626;28;89499;-64
2022/10/07 00:06:27;;;;;;;9.60;8.60;;;23.30;99.90;;;;;;6204830;28;89075;-64
2022/10/07 00:09:29;;;;;;;10.43;8.35;;;23.30;99.90;;;;;;6193936;28;89213;-64
2022/10/07 00:12:32;;;;;;;9.43;8.52;;;23.30;99.90;;;;;;6196403;28;88554;-64
2022/10/07 00:15:35;;;;;;;8.98;8.07;;;23.30;99.90;;;;;;6201802;28;88990;-64
2022/10/07 00:18:38;;;;;;;9.30;8.40;;;23.30;99.90;;;;;;6187025;28;89155;-63
2022/10/07 00:21:40;;;;;;;9.02;8.02;;;23.30;99.90;;;;;;6207020;28;89964;-63
2022/10/07 00:24:42;;;;;;;9.50;8.60;;;23.30;99.90;;;;;;6206078;28;89267;-64
2022/10/07 00:27:44;;;;;;;9.32;8.35;;;23.30;99.90;;;;;;6197891;28;89081;-63
2022/10/07 00:30:56;;;;;;;8.60;7.80;;;23.30;99.90;;;;;;6208188;28;89037;-64
2022/10/07 00:33:59;;;;;;;8.95;8.15;;;23.30;99.90;;;;;;6207785;28;89059;-64
2022/10/07 00:37:00;;;;;;;9.65;8.65;;;23.30;99.90;;;;;;6207191;28;89541;-64
2022/10/07 00:40:03;;;;;;;9.95;8.95;;;23.30;99.90;;;;;;6203365;28;89106;-64
2022/10/07 00:43:19;;;;;;;9.60;8.60;;;23.30;99.90;;;;;;6197872;28;88395;-64
2022/10/07 00:46:29;;;;;;;9.90;8.50;;;23.30;99.90;;;;;;6196650;28;89255;-64
2022/10/07 00:49:35;;;;;;;9.13;8.23;;;23.30;99.90;;;;;;6196998;28;89138;-64
2022/10/07 00:52:40;;;;;;;9.05;8.15;;;23.30;99.90;;;;;;6207709;28;90006;-63
2022/10/07 00:55:43;;;;;;;9.93;8.93;;;23.30;99.90;;;;;;6207771;28;89098;-64
2022/10/07 00:58:47;;;;;;;9.48;8.48;;;23.20;99.90;;;;;;6205455;28;89017;-64
2022/10/07 01:01:51;;;;;;;9.15;8.25;;;23.20;99.90;;;;;;6208515;28;89175;-64
2022/10/07 01:04:54;;;;;;;8.10;7.30;;;23.30;99.90;;;;;;6202693;28;89537;-64
2022/10/07 01:07:57;;;;;;;8.13;6.95;;;23.20;99.90;;;;;;6194219;28;89134;-64
2022/10/07 01:11:13;;;;;;;7.30;6.60;;;23.20;99.90;;;;;;6206311;28;89124;-63
2022/10/07 01:14:28;;;;;;;8.45;7.65;;;23.20;99.90;;;;;;6206094;28;88787;-64
2022/10/07 01:17:38;;;;;;;7.85;7.07;;;23.20;99.90;;;;;;6206536;28;89164;-63
2022/10/07 01:20:46;;;;;;;8.20;7.40;;;23.20;99.90;;;;;;6188948;28;87455;-63
2022/10/07 01:24:05;;;;;;;7.55;6.85;;;23.20;99.90;;;;;;6198523;28;91192;-63
2022/10/07 01:27:13;;;;;;;8.18;7.32;;;23.20;99.90;;;;;;6200208;28;88901;-63
2022/10/07 01:30:15;;;;;;;8.32;7.38;;;23.20;99.90;;;;;;6204264;28;88107;-63
2022/10/07 01:33:20;;;;;;;8.02;7.22;;;23.20;99.90;;;;;;6203112;28;89066;-63
2022/10/07 01:36:25;;;;;;;7.72;7.00;;;23.20;99.90;;;;;;6196278;28;87993;-63
2022/10/07 01:39:32;;;;;;;8.52;7.72;;;23.10;99.90;;;;;;6193596;28;89128;-63
2022/10/07 01:42:36;;;;;;;7.97;7.18;;;23.20;99.90;;;;;;6198901;28;89084;-63
2022/10/07 01:45:41;;;;;;;8.20;7.40;;;23.10;99.90;;;;;;6206590;28;88388;-63
2022/10/07 01:48:45;;;;;;;7.70;7.00;;;23.20;99.90;;;;;;6202368;28;89305;-63
2022/10/07 01:51:54;;;;;;;7.50;6.68;;;23.10;99.90;;;;;;6201851;28;89576;-63
2022/10/07 01:55:22;;;;;;;7.90;7.10;;;23.10;99.90;;;;;;6182592;28;90033;-63
2022/10/07 01:58:38;;;;;;;7.30;6.60;;;23.10;99.90;;;;;;6201960;28;89428;-63
2022/10/07 02:01:46;;;;;;;7.65;6.93;;;23.20;99.90;;;;;;6204224;28;88821;-63
2022/10/07 02:04:58;;;;;;;7.75;6.97;;;23.10;99.90;;;;;;6206533;28;89126;-63
2022/10/07 02:08:15;;;;;;;7.28;6.50;;;23.10;99.90;;;;;;6206003;28;88300;-63
2022/10/07 02:11:22;;;;;;;7.93;7.13;;;23.10;99.90;;;;;;6201936;28;89060;-63
2022/10/07 02:14:32;;;;;;;7.60;6.90;;;23.10;99.90;;;;;;6195378;28;88984;-64
2022/10/07 02:17:37;;;;;;;7.75;6.95;;;23.10;99.90;;;;;;6204631;28;88204;-63
2022/10/07 02:20:41;;;;;;;7.38;6.65;;;23.10;99.90;;;;;;6202197;28;88039;-64
2022/10/07 02:23:46;;;;;;;7.72;6.90;;;23.10;99.90;;;;;;6202816;28;89048;-63
2022/10/07 02:26:52;;;;;;;7.38;6.68;;;23.10;99.90;;;;;;6206285;28;90018;-63
2022/10/07 02:30:01;;;;;;;7.07;6.45;;;23.10;99.90;;;;;;6204740;28;88315;-63
2022/10/07 02:33:06;;;;;;;7.32;6.63;;;23.10;99.90;;;;;;6206316;28;89986;-63
2022/10/07 02:36:14;;;;;;;7.30;6.60;;;23.10;99.90;;;;;;6204739;28;88987;-63
2022/10/07 02:39:17;;;;;;;7.63;6.90;;;23.10;99.90;;;;;;6204928;28;89023;-63
2022/10/07 02:42:26;;;;;;;8.68;7.13;;;23.10;99.90;;;;;;6195707;28;89029;-64
2022/10/07 02:45:36;;;;;;;7.13;6.43;;;23.10;99.90;;;;;;6192775;28;89296;-63
2022/10/07 02:48:43;;;;;;;6.78;6.10;;;23.00;99.90;;;;;;6207026;28;88411;-63
2022/10/07 02:51:50;;;;;;;7.10;6.40;;;23.10;99.90;;;;;;6205999;28;89100;-63
2022/10/07 02:54:58;;;;;;;7.13;6.45;;;23.10;99.90;;;;;;6206187;28;89049;-63
2022/10/07 02:58:05;;;;;;;7.43;6.72;;;23.10;99.90;;;;;;6199214;28;89021;-63
2022/10/07 03:01:10;;;;;;;7.00;6.30;;;23.00;99.90;;;;;;6200967;28;89046;-63
2022/10/07 03:04:12;;;;;;;9.20;6.72;;;23.10;99.90;;;;;;6183678;28;89072;-63
2022/10/07 03:07:15;;;;;;;7.65;6.90;;;23.00;99.90;;;;;;6203560;28;88975;-63
2022/10/07 03:10:17;;;;;;;7.40;6.70;;;23.00;99.90;;;;;;6205991;28;87957;-64
2022/10/07 03:13:19;;;;;;;7.50;6.80;;;23.00;99.90;;;;;;6192411;28;89036;-64
2022/10/07 03:16:22;;;;;;;7.00;6.28;;;23.10;99.90;;;;;;6195891;28;89553;-63
2022/10/07 03:19:24;;;;;;;7.32;6.63;;;23.00;99.90;;;;;;6201996;28;88334;-63
2022/10/07 03:22:28;;;;;;;7.90;6.82;;;23.10;99.90;;;;;;6192055;28;89147;-63
2022/10/07 03:25:30;;;;;;;8.02;6.82;;;23.00;99.90;;;;;;6203905;28;89287;-63
2022/10/07 03:28:36;;;;;;;7.70;6.90;;;23.00;99.90;;;;;;6200958;28;90186;-63
2022/10/07 03:31:41;;;;;;;7.13;6.43;;;23.00;99.90;;;;;;6204701;28;89127;-64
2022/10/07 03:34:43;;;;;;;7.57;6.75;;;23.00;99.90;;;;;;6195851;28;89145;-63
2022/10/07 03:37:45;;;;;;;7.78;6.97;;;23.00;99.90;;;;;;6205067;28;89174;-63
2022/10/07 03:40:48;;;;;;;8.00;7.20;;;23.00;99.90;;;;;;6207164;28;90828;-63
2022/10/07 03:43:50;;;;;;;7.75;6.97;;;23.00;99.90;;;;;;6201519;28;89026;-63
2022/10/07 03:46:54;;;;;;;7.60;6.90;;;23.00;99.90;;;;;;6199855;28;87994;-63
2022/10/07 03:49:56;;;;;;;7.93;7.22;;;23.10;99.90;;;;;;6198764;28;88695;-63
2022/10/07 03:52:58;;;;;;;8.98;7.03;;;23.00;99.90;;;;;;6205517;28;89006;-63
2022/10/07 03:56:00;;;;;;;8.00;7.18;;;23.10;99.90;;;;;;6195716;28;89188;-63
2022/10/07 03:59:02;;;;;;;7.82;7.03;;;23.10;99.90;;;;;;6202774;28;90139;-63
2022/10/07 04:02:06;;;;;;;8.02;7.22;;;23.10;99.90;;;;;;6210044;28;88873;-63
2022/10/07 04:05:09;;;;;;;8.07;7.38;;;23.10;99.90;;;;;;6197924;28;89066;-63
2022/10/07 04:08:16;;;;;;;8.18;7.38;;;23.10;99.90;;;;;;6204200;28;87967;-63
2022/10/07 04:11:18;;;;;;;8.02;7.22;;;23.10;99.90;;;;;;6196549;28;89257;-64
2022/10/07 04:14:20;;;;;;;7.93;7.22;;;23.20;99.90;;;;;;6190101;28;90145;-63
2022/10/07 04:17:24;;;;;;;8.02;7.22;;;23.20;99.90;;;;;;6208142;28;88956;-63
2022/10/07 04:20:26;;;;;;;8.00;7.20;;;23.20;99.90;;;;;;6208859;28;87652;-64
2022/10/07 04:23:28;;;;;;;8.40;7.60;;;23.20;99.90;;;;;;6203330;28;89136;-63
2022/10/07 04:26:30;;;;;;;7.75;7.05;;;23.30;99.90;;;;;;6207812;28;89157;-63
2022/10/07 04:29:32;;;;;;;8.05;7.25;;;23.30;99.90;;;;;;6192174;28;90065;-63
2022/10/07 04:32:36;;;;;;;8.55;7.75;;;23.30;99.90;;;;;;6205484;28;89584;-63
2022/10/07 04:35:39;;;;;;;7.82;7.10;;;23.30;99.90;;;;;;6208178;28;89115;-63
2022/10/07 04:38:43;;;;;;;7.90;7.20;;;23.30;99.90;;;;;;6202352;28;89150;-63
2022/10/07 04:41:45;;;;;;;8.30;7.50;;;23.30;99.90;;;;;;6204254;28;89049;-63
2022/10/07 04:44:47;;;;;;;7.65;6.93;;;23.30;99.90;;;;;;6202244;28;89066;-63
2022/10/07 04:47:50;;;;;;;9.02;8.13;;;23.30;99.90;;;;;;6202629;28;89438;-63
2022/10/07 04:50:53;;;;;;;8.30;7.50;;;23.30;99.90;;;;;;6209409;28;88314;-63
2022/10/07 04:53:55;;;;;;;8.32;7.53;;;23.30;99.90;;;;;;6184484;28;89231;-64
2022/10/07 04:56:57;;;;;;;9.27;8.27;;;23.30;99.90;;;;;;6207351;28;89047;-63
2022/10/07 05:00:00;;;;;;;8.75;7.65;;;23.30;99.90;;;;;;6205872;28;90914;-63
2022/10/07 05:03:04;;;;;;;9.88;7.78;;;23.30;99.90;;;;;;6207182;28;89161;-63
2022/10/07 05:06:07;;;;;;;8.82;7.93;;;23.30;99.90;;;;;;6202303;28;89151;-63
2022/10/07 05:09:09;;;;;;;8.55;7.75;;;23.40;99.90;;;;;;6199792;28;89160;-63
2022/10/07 05:12:11;;;;;;;8.65;7.78;;;23.30;99.90;;;;;;6195360;28;89051;-64
2022/10/07 05:15:14;;;;;;;9.70;7.47;;;23.30;99.90;;;;;;6207625;28;89071;-63
2022/10/07 05:18:18;;;;;;;8.20;7.40;;;23.40;99.90;;;;;;6197173;28;89320;-63
2022/10/07 05:21:20;;;;;;;9.02;8.13;;;23.40;99.90;;;;;;6208189;28;88301;-64
2022/10/07 05:24:23;;;;;;;8.27;7.47;;;23.40;99.90;;;;;;6193839;28;88014;-63
2022/10/07 05:27:25;;;;;;;8.15;7.07;;;23.40;99.90;;;;;;6209462;28;89106;-63
2022/10/07 05:30:27;;;;;;;8.38;7.57;;;23.40;99.90;;;;;;6207313;28;89906;-63
2022/10/07 05:33:30;;;;;;;8.52;7.63;;;23.40;99.90;;;;;;6207277;28;89107;-64
2022/10/07 05:36:32;;;;;;;8.60;7.60;;;23.40;99.90;;;;;;6206810;28;87933;-63
2022/10/07 05:39:34;;;;;;;8.35;7.45;;;23.40;99.90;;;;;;6204092;28;89316;-63
2022/10/07 05:42:36;;;;;;;8.07;7.18;;;23.40;99.90;;;;;;6195387;28;89110;-63
2022/10/07 05:45:39;;;;;;;9.00;7.55;;;23.40;99.90;;;;;;6186482;28;89046;-63
2022/10/07 05:48:46;;;;;;;8.52;7.70;;;23.40;99.90;;;;;;6185396;28;89034;-64
2022/10/07 05:51:48;;;;;;;8.25;7.45;;;23.40;99.90;;;;;;6197487;28;88497;-63
2022/10/07 05:54:50;;;;;;;8.35;7.55;;;23.40;99.90;;;;;;6196892;28;89053;-63
2022/10/07 05:57:52;;;;;;;8.68;7.78;;;23.40;99.90;;;;;;6202488;28;89131;-63
2022/10/07 06:00:56;;;;;;;8.20;7.40;;;23.40;99.90;;;;;;6205588;28;89950;-63
2022/10/07 06:03:59;;;;;;;8.55;7.65;;;23.40;99.90;;;;;;6205847;28;88428;-63
2022/10/07 06:07:04;;;;;;;8.25;7.45;;;23.40;99.90;;;;;;6195638;28;89075;-63
2022/10/07 06:13:26;;;;;;;8.07;7.28;;;23.40;99.90;;;;;;6206651;28;87991;-63
2022/10/07 06:16:29;;;;;;;8.70;7.80;;;23.40;99.90;;;;;;6204556;28;87969;-63
2022/10/07 06:19:32;;;;;;;8.05;7.25;;;23.40;99.90;;;;;;6206034;28;89134;-64
2022/10/07 06:22:34;;;;;;;8.60;7.70;;;23.40;99.90;;;;;;6203914;28;88386;-63
2022/10/07 06:25:36;;;;;;;8.27;7.47;;;23.40;99.90;;;;;;6193079;28;88892;-64
2022/10/07 06:28:40;;;;;;;7.60;6.90;;;23.40;99.90;;;;;;6205101;28;89079;-63
2022/10/07 06:31:45;;;;;;;8.40;7.60;;;23.40;99.90;;;;;;6204667;28;90295;-63
2022/10/07 06:34:48;;;;;;;8.23;7.30;;;23.40;99.90;;;;;;6205096;28;89074;-63
2022/10/07 06:37:50;;;;;;;8.35;7.55;;;23.40;99.90;;;;;;6204656;28;89128;-63
2022/10/07 06:40:57;;;;;;;7.72;7.03;;;23.50;99.90;;;;;;6202460;28;89064;-63
2022/10/07 06:44:00;;;;;;;7.43;6.72;;;23.40;99.90;;;;;;6203425;28;89057;-63
2022/10/07 06:47:03;;;;;;;8.05;7.25;;;23.40;99.90;;;;;;6195421;28;88731;-63
2022/10/07 06:50:07;;;;;;;7.72;7.03;;;23.40;99.90;;;;;;6206418;28;89120;-63
2022/10/07 06:53:09;;;;;;;8.10;7.30;;;23.40;99.90;;;;;;6182239;28;88379;-64
2022/10/07 06:56:13;;;;;;;7.38;6.68;;;23.40;99.90;;;;;;6190766;28;89287;-63
2022/10/07 06:59:15;;;;;;;7.90;7.20;;;23.40;99.90;;;;;;6201375;28;89173;-63
2022/10/07 07:02:17;;;;;;;8.18;7.32;;;23.40;99.90;;;;;;6196963;28;89968;-63
2022/10/07 07:05:21;;;;;;;7.70;6.90;;;23.40;99.90;;;;;;6206281;28;88985;-63
2022/10/07 07:08:26;;;;;;;7.22;6.53;;;23.50;99.90;;;;;;6206485;28;89101;-63
2022/10/07 07:11:39;;;;;;;7.32;6.63;;;23.50;99.90;;;;;;6207107;28;88985;-63
2022/10/07 07:14:42;;;;;;;7.38;6.68;;;23.50;99.90;;;;;;6197186;28;89075;-63
2022/10/07 07:17:44;;;;;;;7.90;7.15;;;23.50;99.90;;;;;;6205104;28;89090;-63
2022/10/07 07:20:47;;;;;;;7.97;7.18;;;23.50;99.90;;;;;;6206538;28;88922;-64
2022/10/07 07:23:50;;;;;;;7.50;6.80;;;23.50;99.90;;;;;;6205385;28;88370;-63
2022/10/07 07:26:52;;;;;;;7.85;7.10;;;23.50;99.90;;;;;;6202804;28;89041;-63
2022/10/07 07:29:54;;;;;;;7.57;6.88;;;23.50;99.90;;;;;;6192138;28;89492;-64
2022/10/07 07:32:56;;;;;;;7.80;7.10;;;23.50;99.90;;;;;;6204229;28;90165;-63
2022/10/07 07:35:59;;;;;;;7.65;6.95;;;23.50;99.90;;;;;;6205015;28;89060;-63
2022/10/07 07:39:04;;;;;;;7.53;6.82;;;23.50;99.90;;;;;;6204827;28;89181;-64
2022/10/07 07:42:06;;;;;;;7.45;6.75;;;23.40;99.90;;;;;;6182219;28;88265;-63
2022/10/07 07:45:09;;;;;;;7.53;6.82;;;23.50;99.90;;;;;;6192213;28;89123;-63
2022/10/07 07:48:12;;;;;;;6.93;6.28;;;23.50;99.90;;;;;;6205608;28;87702;-63
2022/10/07 07:51:16;;;;;;;7.63;6.93;;;23.50;99.90;;;;;;6193255;28;89041;-63
2022/10/07 07:54:18;;;;;;;7.53;6.82;;;23.50;99.90;;;;;;6199285;28;88355;-63
2022/10/07 07:57:20;;;;;;;7.10;6.45;;;23.50;99.90;;;;;;6182657;28;89141;-63
2022/10/07 08:00:22;;;;;;;6.88;6.28;;;23.60;99.90;;;;;;6184436;28;89110;-63
2022/10/07 08:03:24;;;;;;;7.13;6.43;;;23.50;99.90;;;;;;6202154;28;90026;-63
2022/10/07 08:06:30;;;;;;;7.20;6.60;;;23.60;99.90;;;;;;6193893;28;89278;-64
2022/10/07 08:09:32;;;;;;;7.15;6.47;;;23.50;99.90;;;;;;6191276;28;89168;-63
2022/10/07 08:12:34;;;;;;;7.03;6.43;;;23.50;99.90;;;;;;6203928;28;89090;-63
2022/10/07 08:15:36;;;;;;;6.93;6.30;;;23.50;99.90;;;;;;6201872;28;89181;-66
2022/10/07 08:18:38;;;;;;;6.70;6.10;;;23.60;99.90;;;;;;6198260;28;89780;-66
2022/10/07 08:21:42;;;;;;;6.85;6.18;;;23.50;99.90;;;;;;6196966;28;89092;-66
2022/10/07 08:24:44;;;;;;;6.93;6.32;;;23.60;99.90;;;;;;6189673;28;88477;-66
2022/10/07 08:27:47;;;;;;;7.25;6.55;;;23.50;99.90;;;;;;6185017;28;89242;-66
2022/10/07 08:30:49;;;;;;;7.25;6.55;;;23.50;99.90;;;;;;6209525;28;89044;-66
2022/10/07 08:33:51;;;;;;;7.10;6.50;;;23.60;99.90;;;;;;6195646;28;91828;-64
2022/10/07 08:36:55;;;;;;;7.18;6.47;;;23.50;99.90;;;;;;6186450;28;89005;-63
2022/10/07 08:39:57;;;;;;;6.70;6.07;;;23.60;99.90;;;;;;6199523;28;89010;-63
2022/10/07 08:43:00;;;;;;;6.68;6.07;;;23.60;99.90;;;;;;6197563;28;89339;-64
2022/10/07 08:46:03;;;;;;;7.18;6.47;;;23.60;99.90;;;;;;6199338;28;89060;-63
2022/10/07 08:49:09;;;;;;;7.18;6.47;;;23.60;99.90;;;;;;6208839;28;89156;-63
2022/10/07 08:52:33;;;;;;;6.50;5.90;;;23.60;99.90;;;;;;6206288;28;89192;-64
2022/10/07 08:55:42;;;;;;;6.47;5.88;;;23.60;99.90;;;;;;6202377;28;88331;-63
2022/10/07 08:58:54;;;;;;;6.75;6.15;;;23.50;99.90;;;;;;6200518;28;89539;-63
2022/10/07 09:02:14;;;;;;;6.57;5.88;;;23.60;99.90;;;;;;6195531;28;87938;-63
2022/10/07 09:05:22;;;;;;;6.55;5.88;;;23.60;99.90;;;;;;6207570;28;90074;-64
2022/10/07 09:08:32;;;;;;;6.72;6.13;;;23.60;99.90;;;;;;6194881;28;87946;-64
2022/10/07 09:11:34;;;;;;;6.45;5.85;;;23.60;99.90;;;;;;6191005;28;89013;-64
2022/10/07 09:14:39;;;;;;;6.25;5.65;;;23.60;99.90;;;;;;6196961;28;89097;-64
2022/10/07 09:17:49;;;;;;;6.60;6.00;;;23.60;99.90;;;;;;6197542;28;88972;-63
2022/10/07 09:20:54;;;;;;;6.75;6.15;;;23.50;99.90;;;;;;6207238;28;89065;-63
2022/10/07 09:24:14;;;;;;;6.45;5.85;;;23.60;99.90;;;;;;6207313;28;88255;-64
2022/10/07 09:27:18;;;;;;;6.30;5.80;;;23.60;99.90;;;;;;6194131;28;88328;-63
2022/10/07 09:30:21;;;;;;;6.25;5.65;;;23.60;99.90;;;;;;6207701;28;89647;-63
2022/10/07 09:33:28;;;;;;;6.30;5.80;;;23.60;99.90;;;;;;6205944;28;89362;-64
2022/10/07 09:36:30;;;;;;;6.57;5.97;;;23.60;99.90;;;;;;6206213;28;90001;-63
2022/10/07 09:39:33;;;;;;;6.00;5.50;;;23.60;99.90;;;;;;6205550;28;89105;-64
2022/10/07 09:42:41;;;;;;;6.68;6.07;;;23.60;99.90;;;;;;6195356;28;89127;-63
2022/10/07 09:45:46;;;;;;;6.30;5.70;;;23.60;99.90;;;;;;6196107;28;89403;-63
2022/10/07 09:48:54;;;;;;;6.38;5.78;;;23.60;99.90;;;;;;6196611;28;89137;-63
2022/10/07 09:51:59;;;;;;;6.18;5.68;;;23.60;99.90;;;;;;6198190;28;89141;-64
2022/10/07 09:55:36;;;;;;;6.55;5.95;;;23.60;99.90;;;;;;6193010;28;89200;-64
2022/10/07 09:58:38;;;;;;;6.00;5.50;;;23.60;99.90;;;;;;6201279;28;88458;-63
2022/10/07 10:01:40;;;;;;;5.70;5.20;;;23.60;99.90;;;;;;6207073;28;89041;-63
2022/10/07 10:04:49;;;;;;;6.47;5.88;;;23.60;99.90;;;;;;6204277;28;89035;-64
2022/10/07 10:07:55;;;;;;;5.80;5.30;;;23.60;99.90;;;;;;6196444;28;89963;-63
2022/10/07 10:11:01;;;;;;;6.32;5.75;;;23.60;99.90;;;;;;6206167;28;89097;-63
2022/10/07 10:14:35;;;;;;;6.00;5.50;;;23.60;99.90;;;;;;6195109;28;89492;-63
2022/10/07 10:17:40;;;;;;;5.95;5.35;;;23.60;99.90;;;;;;6184800;28;89514;-63
2022/10/07 10:20:43;;;;;;;6.03;5.53;;;23.60;99.90;;;;;;6205628;28;88982;-63
2022/10/07 10:23:46;;;;;;;5.63;5.13;;;23.60;99.90;;;;;;6207119;28;88873;-64
2022/10/07 10:27:00;;;;;;;5.90;5.35;;;23.60;99.90;;;;;;6205692;28;87991;-64
2022/10/07 10:30:05;;;;;;;5.97;5.47;;;23.60;99.90;;;;;;6194216;28;87216;-63
2022/10/07 10:33:19;;;;;;;5.53;5.03;;;23.60;99.90;;;;;;6205168;28;89112;-64
2022/10/07 10:36:25;;;;;;;6.22;5.72;;;23.60;99.90;;;;;;6194269;28;89275;-63
2022/10/07 10:39:40;;;;;;;5.88;5.38;;;23.60;99.90;;;;;;6204527;28;91706;-63
2022/10/07 10:42:51;;;;;;;5.70;5.10;;;23.60;99.90;;;;;;6187281;28;89126;-63
2022/10/07 10:46:11;;;;;;;5.75;5.25;;;23.60;99.90;;;;;;6204387;28;89476;-63
2022/10/07 10:49:24;;;;;;;5.10;4.70;;;23.60;99.90;;;;;;6203790;28;89072;-63
2022/10/07 10:52:49;;;;;;;5.63;5.13;;;23.60;99.90;;;;;;6198323;28;89005;-63
2022/10/07 10:56:05;;;;;;;5.50;5.00;;;23.60;99.90;;;;;;6202143;28;89065;-63
2022/10/07 10:59:29;;;;;;;5.40;4.90;;;23.60;99.90;;;;;;6205712;28;89085;-64
2022/10/07 11:02:58;;;;;;;6.00;5.43;;;23.60;99.90;;;;;;6196118;28;88340;-63
2022/10/07 11:06:04;;;;;;;5.50;5.00;;;23.60;99.90;;;;;;6194627;28;89151;-64
2022/10/07 11:09:10;;;;;;;5.05;4.65;;;23.60;99.90;;;;;;6182169;28;89310;-63
2022/10/07 11:12:23;;;;;;;5.80;5.30;;;23.60;99.90;;;;;;6193976;28;90214;-64
2022/10/07 11:15:31;;;;;;;5.43;4.97;;;23.60;99.90;;;;;;6182126;28;89088;-64
2022/10/07 11:18:39;;;;;;;5.28;4.85;;;23.60;99.90;;;;;;6195460;28;89450;-63
2022/10/07 11:21:45;;;;;;;5.10;4.70;;;23.60;99.90;;;;;;6202183;28;88081;-63
2022/10/07 11:24:53;;;;;;;5.40;4.90;;;23.60;99.90;;;;;;6200036;28;89078;-63
2022/10/07 11:28:03;;;;;;;5.25;4.75;;;23.60;99.90;;;;;;6193842;28;90264;-63
2022/10/07 11:31:14;;;;;;;5.35;4.95;;;23.60;99.90;;;;;;6199797;28;89393;-64
2022/10/07 11:34:19;;;;;;;5.60;5.10;;;23.70;99.90;;;;;;6198385;28;88388;-64
2022/10/07 11:37:29;;;;;;;5.63;5.13;;;23.60;99.90;;;;;;6193620;28;89064;-63
2022/10/07 11:40:34;;;;;;;5.32;4.82;;;23.70;99.90;;;;;;6194304;28;89144;-64
2022/10/07 11:43:44;;;;;;;4.82;4.43;;;23.60;99.90;;;;;;6193223;28;90056;-64
2022/10/07 11:46:48;;;;;;;5.07;4.60;;;23.60;99.90;;;;;;6204252;28;89357;-64
2022/10/07 11:49:56;;;;;;;5.22;4.72;;;23.60;99.90;;;;;;6200927;28;89171;-63
2022/10/07 11:53:05;;;;;;;5.15;4.70;;;23.60;99.90;;;;;;6204366;28;88942;-64
2022/10/07 11:56:16;;;;;;;4.97;4.57;;;23.60;99.90;;;;;;6205557;28;89552;-63
2022/10/07 11:59:40;;;;;;;4.82;4.43;;;23.70;99.90;;;;;;6203001;28;89097;-64
2022/10/07 12:02:45;;;;;;;5.38;4.88;;;23.60;99.90;;;;;;6206622;28;89510;-63
2022/10/07 12:05:57;;;;;;;5.40;4.95;;;23.60;99.90;;;;;;6196812;28;87144;-63
2022/10/07 12:09:38;;;;;;;5.13;4.57;;;23.60;99.90;;;;;;6208520;28;89106;-63
2022/10/07 12:12:56;;;;;;;4.55;4.15;;;23.60;99.90;;;;;;6194858;28;88539;-63
2022/10/07 12:16:48;;;;;;;4.78;4.38;;;23.60;99.90;;;;;;6196565;28;90079;-64
2022/10/07 12:20:27;;;;;;;4.90;4.50;;;23.60;99.90;;;;;;6098703;28;89201;-63
2022/10/07 12:23:42;;;;;;;5.07;4.68;;;23.70;99.90;;;;;;6198901;28;89089;-64
2022/10/07 12:26:47;;;;;;;5.03;4.60;;;23.70;99.90;;;;;;6197408;28;89202;-63
2022/10/07 12:29:57;;;;;;;4.82;4.43;;;23.70;99.90;;;;;;6202744;28;89334;-63
2022/10/07 12:33:00;;;;;;;4.80;4.40;;;23.60;99.90;;;;;;6207213;28;89482;-64
2022/10/07 12:36:28;;;;;;;4.90;4.50;;;23.60;99.90;;;;;;6205856;28;88970;-64
2022/10/07 12:39:36;;;;;;;4.68;4.28;;;23.70;99.90;;;;;;6198753;28;88049;-64
2022/10/07 12:42:47;;;;;;;4.90;4.50;;;23.70;99.90;;;;;;6208691;28;89061;-64
2022/10/07 12:45:50;;;;;;;5.10;4.63;;;23.60;99.90;;;;;;6194424;28;89050;-64
2022/10/07 12:48:58;;;;;;;4.80;4.40;;;23.70;99.90;;;;;;6208228;28;88726;-63
2022/10/07 12:52:05;;;;;;;5.10;4.60;;;23.60;99.90;;;;;;6205191;28;89132;-64
2022/10/07 12:55:13;;;;;;;4.75;4.35;;;23.70;99.90;;;;;;6197222;28;89096;-63
2022/10/07 13:02:22;;;;;;;4.75;4.35;;;23.70;99.90;;;;;;6190551;28;89871;-64
2022/10/07 13:06:01;;;;;;;4.90;4.50;;;23.60;99.90;;;;;;6179141;28;89031;-64
2022/10/07 13:09:25;;;;;;;4.68;4.28;;;23.60;99.90;;;;;;6207064;28;89126;-64
2022/10/07 13:12:43;;;;;;;4.60;4.20;;;23.60;99.90;;;;;;6197469;28;88348;-64
2022/10/07 13:15:49;;;;;;;4.75;4.35;;;23.70;99.90;;;;;;6196748;28;87798;-63
2022/10/07 13:18:59;;;;;;;4.80;4.40;;;23.70;99.90;;;;;;6208301;28;89154;-63
2022/10/07 13:22:10;;;;;;;5.00;4.50;;;23.70;99.90;;;;;;6205414;28;90412;-64
2022/10/07 13:25:12;;;;;;;4.85;4.45;;;23.70;99.90;;;;;;6189523;28;89032;-64
2022/10/07 13:28:18;;;;;;;4.43;4.07;;;23.70;99.90;;;;;;6207618;28;89049;-63
2022/10/07 13:31:23;;;;;;;4.55;4.15;;;23.60;99.90;;;;;;6207346;28;88954;-64
2022/10/07 13:34:25;;;;;;;4.45;4.07;;;23.60;99.90;;;;;;6206765;28;89004;-64
2022/10/07 13:37:30;;;;;;;4.80;4.40;;;23.60;99.90;;;;;;6207939;28;89118;-63
2022/10/07 13:40:34;;;;;;;4.68;4.28;;;23.60;99.90;;;;;;6198022;28;89006;-64
2022/10/07 13:43:38;;;;;;;4.60;4.20;;;23.60;99.90;;;;;;6196062;28;88341;-64
2022/10/07 13:46:54;;;;;;;4.50;4.10;;;23.60;99.90;;;;;;6195759;28;88976;-64
2022/10/07 13:49:57;;;;;;;4.20;3.90;;;23.60;99.90;;;;;;6196566;28;89012;-64
2022/10/07 13:53:00;;;;;;;4.47;4.07;;;23.60;99.90;;;;;;6203004;28;90077;-63
2022/10/07 13:56:06;;;;;;;5.28;4.78;;;23.60;99.90;;;;;;6207306;28;89027;-64
2022/10/07 13:59:17;;;;;;;4.47;4.07;;;23.60;99.90;;;;;;6189284;28;89261;-64
2022/10/07 14:02:19;;;;;;;4.70;4.30;;;23.60;99.90;;;;;;6200200;28;87956;-64
2022/10/07 14:05:24;;;;;;;4.43;4.03;;;23.60;99.90;;;;;;6207615;28;89090;-64
2022/10/07 14:08:28;;;;;;;4.70;4.30;;;23.60;99.90;;;;;;6196577;28;89467;-64
2022/10/07 14:11:30;;;;;;;4.80;4.40;;;23.60;99.90;;;;;;6204704;28;88123;-64
2022/10/07 14:14:37;;;;;;;4.70;4.30;;;23.60;99.90;;;;;;6188042;28;88651;-63
2022/10/07 14:17:43;;;;;;;4.70;4.30;;;23.60;99.90;;;;;;6192588;28;89124;-63
2022/10/07 14:20:51;;;;;;;4.53;4.13;;;23.60;99.90;;;;;;6203583;28;89082;-64
2022/10/07 14:23:53;;;;;;;4.75;4.35;;;23.60;99.90;;;;;;6205506;28;90417;-64
2022/10/07 14:26:55;;;;;;;4.35;4.00;;;23.60;99.90;;;;;;6205951;28;89047;-64
2022/10/07 14:30:00;;;;;;;4.60;4.20;;;23.60;99.90;;;;;;6206749;28;89010;-64
2022/10/07 14:36:31;;;;;;;4.45;4.07;;;23.60;99.90;;;;;;6192902;28;87220;-63
2022/10/07 14:39:36;;;;;;;4.65;4.25;;;23.70;99.90;;;;;;6189939;28;89114;-64
2022/10/07 14:42:38;;;;;;;4.85;4.45;;;23.60;99.90;;;;;;6206032;28;89152;-64
2022/10/07 14:45:42;;;;;;;5.00;4.60;;;23.60;99.90;;;;;;6205052;28;88804;-64
2022/10/07 14:48:44;;;;;;;4.38;3.97;;;23.60;99.90;;;;;;6206205;28;89166;-64
2022/10/07 14:51:46;;;;;;;4.10;3.80;;;23.60;99.90;;;;;;6204939;28;89418;-64
2022/10/07 14:54:49;;;;;;;4.55;4.15;;;23.70;99.90;;;;;;6194347;28;90036;-64
2022/10/07 14:57:51;;;;;;;4.40;4.05;;;23.60;99.90;;;;;;6206917;28;89094;-64
2022/10/07 15:00:55;;;;;;;4.20;3.90;;;23.70;99.90;;;;;;6196593;28;89135;-64
2022/10/07 15:03:57;;;;;;;4.35;4.03;;;23.70;99.90;;;;;;6203905;28;88950;-64
2022/10/07 15:06:59;;;;;;;4.10;3.80;;;23.60;99.90;;;;;;6198320;28;89075;-64
2022/10/07 15:10:01;;;;;;;4.25;3.95;;;23.60;99.90;;;;;;6195671;28;89099;-64
2022/10/07 15:13:04;;;;;;;4.10;3.80;;;23.60;99.90;;;;;;6186470;28;89242;-64
2022/10/07 15:16:14;;;;;;;4.60;4.20;;;23.70;99.90;;;;;;6192323;28;88444;-64
2022/10/07 15:19:16;;;;;;;4.50;4.10;;;23.60;99.90;;;;;;6185591;28;88811;-64
2022/10/07 15:22:18;;;;;;;4.50;4.10;;;23.60;99.90;;;;;;6205193;28;89134;-64
2022/10/07 15:25:20;;;;;;;4.60;4.20;;;23.60;99.90;;;;;;6191961;28;90172;-64
2022/10/07 15:28:22;;;;;;;4.32;3.92;;;23.70;99.90;;;;;;6204535;28;89302;-64
2022/10/07 15:31:28;;;;;;;4.28;3.97;;;23.70;99.90;;;;;;6200691;28;89297;-64
2022/10/07 15:34:30;;;;;;;4.40;4.10;;;23.70;99.90;;;;;;6197509;28;89117;-64
2022/10/07 15:37:33;;;;;;;4.38;4.05;;;23.60;99.90;;;;;;6204911;28;89175;-63
2022/10/07 15:40:50;;;;;;;4.45;4.05;;;23.60;99.90;;;;;;6196630;28;89500;-64
2022/10/07 15:43:52;;;;;;;4.47;4.07;;;23.60;99.90;;;;;;6203930;28;89065;-64
2022/10/07 15:46:56;;;;;;;4.10;3.80;;;23.70;99.90;;;;;;6194445;28;88331;-64
2022/10/07 15:49:58;;;;;;;3.97;3.67;;;23.60;99.90;;;;;;6205429;28;87573;-64
2022/10/07 15:53:00;;;;;;;4.10;3.80;;;23.70;99.90;;;;;;6206159;28;89151;-63
2022/10/07 15:56:02;;;;;;;4.15;3.85;;;23.70;99.90;;;;;;6202386;28;88915;-64
2022/10/07 15:59:04;;;;;;;4.07;3.78;;;23.60;99.90;;;;;;6203559;28;89481;-64
2022/10/07 16:02:14;;;;;;;4.13;3.83;;;23.70;99.90;;;;;;6201486;28;89039;-64
2022/10/07 16:05:16;;;;;;;4.10;3.80;;;23.70;99.90;;;;;;6202428;28;89072;-64
2022/10/07 16:08:18;;;;;;;4.47;4.07;;;23.60;99.90;;;;;;6188253;28;88999;-64
2022/10/07 16:11:21;;;;;;;4.15;3.78;;;23.70;99.90;;;;;;6195760;28;89102;-64
2022/10/07 16:14:23;;;;;;;4.47;4.07;;;23.60;99.90;;;;;;6204128;28;89324;-65
2022/10/07 16:17:28;;;;;;;4.38;3.97;;;23.60;99.90;;;;;;6204428;28;88433;-65
2022/10/07 16:20:30;;;;;;;4.70;4.30;;;23.70;99.90;;;;;;6191416;28;89421;-64